createdAt,value
2023-05-18T00:01:17.248Z,9.80
2023-05-18T00:03:44.172Z,9.80
2023-05-18T00:06:11.241Z,9.80
2023-05-18T00:08:38.718Z,9.80
2023-05-18T00:11:06.600Z,9.70
2023-05-18T00:13:33.862Z,9.80
2023-05-18T00:16:01.030Z,9.80
2023-05-18T00:18:28.358Z,9.80
2023-05-18T00:21:02.011Z,9.80
2023-05-18T00:23:30.770Z,9.70
2023-05-18T00:26:02.786Z,9.70
2023-05-18T00:28:29.875Z,9.70
2023-05-18T00:30:57.342Z,9.70
2023-05-18T00:33:24.117Z,9.70
2023-05-18T00:35:50.946Z,9.70
2023-05-18T00:38:18.229Z,9.70
2023-05-18T00:40:45.023Z,9.70
2023-05-18T00:43:11.919Z,9.60
2023-05-18T00:45:38.774Z,9.70
2023-05-18T00:48:06.171Z,9.70
2023-05-18T00:50:33.280Z,9.70
2023-05-18T00:53:00.545Z,9.70
2023-05-18T00:55:28.666Z,9.70
2023-05-18T00:57:57.112Z,9.60
2023-05-18T01:00:24.406Z,9.60
2023-05-18T01:02:51.776Z,9.70
2023-05-18T01:05:20.165Z,9.70
2023-05-18T01:07:48.096Z,9.60
2023-05-18T01:10:17.272Z,9.60
2023-05-18T01:12:51.090Z,9.60
2023-05-18T01:15:32.935Z,9.60
2023-05-18T01:18:18.195Z,9.60
2023-05-18T01:20:58.054Z,9.60
2023-05-18T01:23:44.931Z,9.60
2023-05-18T01:26:32.967Z,9.60
2023-05-18T01:29:02.858Z,9.60
2023-05-18T01:31:30.675Z,9.60
2023-05-18T01:33:57.611Z,9.60
2023-05-18T01:36:24.479Z,9.50
2023-05-18T01:38:52.711Z,9.50
2023-05-18T01:41:24.146Z,9.50
2023-05-18T01:43:53.813Z,9.40
2023-05-18T01:46:48.043Z,9.40
2023-05-18T01:49:26.110Z,9.40
2023-05-18T01:51:55.686Z,9.40
2023-05-18T01:54:24.621Z,9.40
2023-05-18T01:56:54.347Z,9.40
2023-05-18T01:59:23.813Z,9.40
2023-05-18T02:01:50.944Z,9.40
2023-05-18T02:04:26.926Z,9.40
2023-05-18T02:06:54.265Z,9.30
2023-05-18T02:09:22.223Z,9.30
2023-05-18T02:11:49.577Z,9.30
2023-05-18T02:14:16.509Z,9.20
2023-05-18T02:16:47.123Z,9.20
2023-05-18T02:19:17.381Z,9.20
2023-05-18T02:21:44.713Z,9.30
2023-05-18T02:24:12.549Z,9.20
2023-05-18T02:26:39.836Z,9.30
2023-05-18T02:29:06.929Z,9.20
2023-05-18T02:31:33.764Z,9.20
2023-05-18T02:34:01.454Z,9.20
2023-05-18T02:36:28.249Z,9.20
2023-05-18T02:38:55.309Z,9.10
2023-05-18T02:41:22.801Z,9.10
2023-05-18T02:43:49.558Z,9.10
2023-05-18T02:46:16.381Z,9.10
2023-05-18T02:48:45.641Z,9.10
2023-05-18T02:51:12.687Z,9.10
2023-05-18T02:53:39.813Z,9.00
2023-05-18T02:56:06.990Z,9.00
2023-05-18T02:58:33.761Z,9.00
2023-05-18T03:01:00.602Z,9.00
2023-05-18T03:03:27.419Z,9.00
2023-05-18T03:05:54.229Z,8.90
2023-05-18T03:08:22.852Z,9.00
2023-05-18T03:10:50.351Z,8.90
2023-05-18T03:13:17.424Z,8.90
2023-05-18T03:15:47.129Z,8.90
2023-05-18T03:18:13.957Z,9.00
2023-05-18T03:20:40.900Z,9.00
2023-05-18T03:23:07.737Z,8.90
2023-05-18T03:25:37.282Z,8.90
2023-05-18T03:28:05.589Z,8.90
2023-05-18T03:30:35.616Z,8.90
2023-05-18T03:33:03.212Z,8.90
2023-05-18T03:35:30.225Z,8.90
2023-05-18T03:37:57.352Z,8.90
2023-05-18T03:40:24.993Z,8.90
2023-05-18T03:42:51.723Z,8.80
2023-05-18T03:45:18.530Z,8.80
2023-05-18T03:47:45.444Z,8.80
2023-05-18T03:50:12.282Z,8.80
2023-05-18T03:52:41.532Z,8.80
2023-05-18T03:55:08.682Z,8.80
2023-05-18T03:57:35.470Z,8.80
2023-05-18T04:00:04.394Z,8.80
2023-05-18T04:02:31.565Z,8.80
2023-05-18T04:04:58.517Z,8.80
2023-05-18T04:07:25.383Z,8.80
2023-05-18T04:09:53.829Z,8.80
2023-05-18T04:12:20.613Z,8.70
2023-05-18T04:14:49.426Z,8.80
2023-05-18T04:17:17.718Z,8.80
2023-05-18T04:19:44.627Z,8.70
2023-05-18T04:22:11.947Z,8.70
2023-05-18T04:24:41.184Z,8.80
2023-05-18T04:27:09.647Z,8.80
2023-05-18T04:29:39.193Z,8.80
2023-05-18T04:32:10.737Z,8.80
2023-05-18T04:34:37.666Z,8.80
2023-05-18T04:37:07.806Z,8.90
2023-05-18T04:39:35.131Z,8.90
2023-05-18T04:42:04.636Z,8.90
2023-05-18T04:44:34.040Z,8.90
2023-05-18T04:47:01.158Z,9.00
2023-05-18T04:49:28.356Z,9.00
2023-05-18T04:51:56.395Z,9.00
2023-05-18T04:54:24.183Z,9.00
2023-05-18T04:56:51.746Z,9.00
2023-05-18T04:59:19.324Z,9.10
2023-05-18T05:01:46.543Z,9.10
2023-05-18T05:04:13.573Z,9.20
2023-05-18T05:06:40.601Z,9.20
2023-05-18T05:09:08.098Z,9.30
2023-05-18T05:11:35.111Z,9.30
2023-05-18T05:14:03.110Z,9.40
2023-05-18T05:16:30.009Z,9.50
2023-05-18T05:18:56.986Z,9.50
2023-05-18T05:21:23.912Z,9.60
2023-05-18T05:23:50.655Z,9.60
2023-05-18T05:26:18.135Z,9.70
2023-05-18T05:28:44.904Z,9.70
2023-05-18T05:31:11.814Z,9.80
2023-05-18T05:33:38.650Z,9.80
2023-05-18T05:36:05.891Z,9.90
2023-05-18T05:38:32.953Z,9.90
2023-05-18T05:40:59.835Z,10.00
2023-05-18T05:43:26.714Z,10.00
2023-05-18T05:45:54.177Z,10.00
2023-05-18T05:48:21.078Z,10.00
2023-05-18T05:50:47.895Z,10.00
2023-05-18T05:53:17.859Z,10.10
2023-05-18T05:55:44.756Z,10.10
2023-05-18T05:58:11.654Z,10.20
2023-05-18T06:00:38.552Z,10.20
2023-05-18T06:03:05.353Z,10.30
2023-05-18T06:05:32.744Z,10.40
2023-05-18T06:07:59.783Z,10.40
2023-05-18T06:10:26.626Z,10.50
2023-05-18T06:12:53.421Z,10.60
2023-05-18T06:15:20.363Z,10.60
2023-05-18T06:17:47.243Z,10.70
2023-05-18T06:20:14.157Z,10.70
2023-05-18T06:22:41.060Z,10.80
2023-05-18T06:25:08.513Z,10.80
2023-05-18T06:27:35.294Z,10.80
2023-05-18T06:30:02.099Z,10.80
2023-05-18T06:32:28.968Z,10.80
2023-05-18T06:34:56.476Z,10.90
2023-05-18T06:37:23.280Z,10.90
2023-05-18T06:39:50.030Z,11.10
2023-05-18T06:42:16.904Z,11.10
2023-05-18T06:44:45.012Z,11.20
2023-05-18T06:47:11.756Z,11.30
2023-05-18T06:49:38.483Z,11.40
2023-05-18T06:52:05.774Z,11.40
2023-05-18T06:54:32.551Z,11.50
2023-05-18T06:56:59.361Z,11.60
2023-05-18T06:59:26.316Z,11.60
2023-05-18T07:01:53.111Z,11.70
2023-05-18T07:04:19.944Z,11.70
2023-05-18T07:06:46.741Z,11.70
2023-05-18T07:09:13.514Z,11.60
2023-05-18T07:11:40.511Z,11.60
2023-05-18T07:14:07.298Z,11.60
2023-05-18T07:16:34.309Z,11.60
2023-05-18T07:19:01.227Z,11.60
2023-05-18T07:21:28.177Z,11.70
2023-05-18T07:23:55.047Z,11.60
2023-05-18T07:26:22.562Z,11.60
2023-05-18T07:28:49.873Z,11.60
2023-05-18T07:31:17.344Z,11.70
2023-05-18T07:33:44.995Z,11.80
2023-05-18T07:36:11.757Z,11.80
2023-05-18T07:38:38.487Z,11.80
2023-05-18T07:41:05.648Z,11.80
2023-05-18T07:43:32.402Z,11.90
2023-05-18T07:45:59.267Z,11.90
2023-05-18T07:48:26.004Z,12.00
2023-05-18T07:50:53.033Z,12.10
2023-05-18T07:53:19.853Z,12.10
2023-05-18T07:55:46.840Z,12.30
2023-05-18T07:58:13.679Z,12.30
2023-05-18T08:00:40.449Z,12.40
2023-05-18T08:03:07.383Z,12.40
2023-05-18T08:05:34.366Z,12.40
2023-05-18T08:08:05.146Z,12.30
2023-05-18T08:10:33.552Z,12.30
2023-05-18T08:13:00.318Z,12.30
2023-05-18T08:15:27.149Z,12.30
2023-05-18T08:17:55.036Z,12.40
2023-05-18T08:20:22.124Z,12.50
2023-05-18T08:22:49.040Z,12.60
2023-05-18T08:25:15.825Z,12.70
2023-05-18T08:27:42.742Z,12.80
2023-05-18T08:30:10.189Z,12.90
2023-05-18T08:32:37.402Z,13.00
2023-05-18T08:35:08.593Z,13.10
2023-05-18T08:37:37.406Z,13.20
2023-05-18T08:40:08.060Z,13.20
2023-05-18T08:42:50.054Z,13.30
2023-05-18T08:45:39.891Z,13.40
2023-05-18T08:48:08.628Z,13.50
2023-05-18T08:50:37.920Z,13.50
2023-05-18T08:53:06.338Z,13.50
2023-05-18T08:55:36.812Z,13.50
2023-05-18T08:58:09.227Z,13.50
2023-05-18T09:00:36.978Z,13.50
2023-05-18T09:03:05.909Z,13.50
2023-05-18T09:05:33.430Z,13.50
2023-05-18T09:08:01.048Z,13.60
2023-05-18T09:10:28.540Z,13.50
2023-05-18T09:12:56.884Z,13.50
2023-05-18T09:15:25.416Z,13.40
2023-05-18T09:17:52.531Z,13.30
2023-05-18T09:20:20.475Z,13.30
2023-05-18T09:22:51.284Z,13.30
2023-05-18T09:25:19.034Z,13.30
2023-05-18T09:27:47.870Z,13.30
2023-05-18T09:30:14.726Z,13.40
2023-05-18T09:32:42.377Z,13.30
2023-05-18T09:35:09.708Z,13.40
2023-05-18T09:37:36.647Z,13.30
2023-05-18T09:40:08.812Z,13.30
2023-05-18T09:42:43.959Z,13.30
2023-05-18T09:45:17.697Z,13.30
2023-05-18T09:47:44.792Z,13.30
2023-05-18T09:50:11.920Z,13.30
2023-05-18T09:52:46.046Z,13.40
2023-05-18T09:55:15.608Z,13.50
2023-05-18T09:57:50.271Z,13.50
2023-05-18T10:00:19.430Z,13.70
2023-05-18T10:02:49.170Z,13.80
2023-05-18T10:05:36.285Z,13.80
2023-05-18T10:08:03.220Z,13.90
2023-05-18T10:10:30.248Z,13.90
2023-05-18T10:12:58.505Z,13.90
2023-05-18T10:15:26.264Z,13.90
2023-05-18T10:17:56.501Z,13.90
2023-05-18T10:20:26.581Z,13.90
2023-05-18T10:22:55.863Z,13.90
2023-05-18T10:25:25.638Z,13.90
2023-05-18T10:27:57.559Z,14.00
2023-05-18T10:30:24.443Z,14.00
2023-05-18T10:32:52.490Z,14.10
2023-05-18T10:35:19.647Z,14.20
2023-05-18T10:37:48.032Z,14.30
2023-05-18T10:40:16.937Z,14.30
2023-05-18T10:42:45.171Z,14.40
2023-05-18T10:45:12.428Z,14.50
2023-05-18T10:47:42.477Z,14.70
2023-05-18T10:50:10.157Z,14.80
2023-05-18T10:52:37.743Z,14.90
2023-05-18T10:55:06.091Z,14.90
2023-05-18T10:57:40.021Z,15.00
2023-05-18T11:00:09.411Z,15.10
2023-05-18T11:02:42.895Z,15.20
2023-05-18T11:05:11.627Z,15.30
2023-05-18T11:07:38.972Z,15.40
2023-05-18T11:10:10.785Z,15.50
2023-05-18T11:12:41.649Z,15.60
2023-05-18T11:15:08.990Z,15.70
2023-05-18T11:17:36.599Z,15.70
2023-05-18T11:20:09.526Z,15.80
2023-05-18T11:22:46.813Z,15.90
2023-05-18T11:25:43.916Z,16.00
2023-05-18T11:28:13.647Z,16.10
2023-05-18T11:30:40.527Z,16.30
2023-05-18T11:33:17.661Z,16.40
2023-05-18T11:36:08.698Z,16.50
2023-05-18T11:39:04.897Z,16.60
2023-05-18T11:41:33.015Z,16.80
2023-05-18T11:44:10.214Z,16.90
2023-05-18T11:46:37.730Z,16.90
2023-05-18T11:49:07.474Z,16.80
2023-05-18T11:51:34.329Z,16.70
2023-05-18T11:54:02.010Z,16.70
2023-05-18T11:56:33.685Z,16.60
2023-05-18T11:59:14.409Z,16.60
2023-05-18T12:01:42.979Z,16.70
2023-05-18T12:04:11.011Z,16.80
2023-05-18T12:06:38.765Z,16.80
2023-05-18T12:09:07.722Z,16.90
2023-05-18T12:11:35.071Z,16.90
2023-05-18T12:14:02.456Z,17.00
2023-05-18T12:16:30.159Z,17.10
2023-05-18T12:18:57.552Z,17.20
2023-05-18T12:21:27.101Z,17.20
2023-05-18T12:24:03.537Z,17.20
2023-05-18T12:26:31.957Z,17.20
2023-05-18T12:29:02.137Z,17.20
2023-05-18T12:31:30.046Z,17.30
2023-05-18T12:33:59.210Z,17.20
2023-05-18T12:36:27.380Z,17.20
2023-05-18T12:38:54.226Z,17.20
2023-05-18T12:41:27.917Z,17.30
2023-05-18T12:43:55.676Z,17.40
2023-05-18T12:46:23.968Z,17.40
2023-05-18T12:48:59.632Z,17.50
2023-05-18T12:51:30.963Z,17.50
2023-05-18T12:53:57.859Z,17.70
2023-05-18T12:56:28.682Z,17.80
2023-05-18T12:58:59.734Z,18.00
2023-05-18T13:01:28.033Z,18.10
2023-05-18T13:03:59.176Z,18.10
2023-05-18T13:06:26.376Z,18.20
2023-05-18T13:08:56.334Z,18.10
2023-05-18T13:11:27.686Z,18.20
2023-05-18T13:14:05.473Z,18.20
2023-05-18T13:16:37.240Z,18.20
2023-05-18T13:19:07.174Z,18.30
2023-05-18T13:21:34.580Z,18.40
2023-05-18T13:24:02.237Z,18.50
2023-05-18T13:26:29.334Z,18.60
2023-05-18T13:28:57.273Z,18.70
2023-05-18T13:31:25.109Z,18.70
2023-05-18T13:33:52.226Z,18.80
2023-05-18T13:36:19.447Z,18.70
2023-05-18T13:38:46.516Z,18.70
2023-05-18T13:41:15.175Z,18.70
2023-05-18T13:43:42.837Z,18.70
2023-05-18T13:46:09.838Z,18.70
2023-05-18T13:48:36.810Z,18.80
2023-05-18T13:51:03.829Z,18.80
2023-05-18T13:53:30.690Z,18.90
2023-05-18T13:55:57.488Z,19.00
2023-05-18T13:58:24.262Z,19.00
2023-05-18T14:00:53.894Z,19.10
2023-05-18T14:03:20.928Z,19.20
2023-05-18T14:05:47.964Z,19.40
2023-05-18T14:08:14.780Z,19.60
2023-05-18T14:10:41.809Z,19.60
2023-05-18T14:13:09.279Z,19.70
2023-05-18T14:15:36.194Z,19.80
2023-05-18T14:18:03.031Z,19.80
2023-05-18T14:20:30.473Z,19.80
2023-05-18T14:22:57.702Z,19.70
2023-05-18T14:25:24.482Z,19.60
2023-05-18T14:27:51.322Z,19.40
2023-05-18T14:30:18.110Z,19.40
2023-05-18T14:32:44.903Z,19.40
2023-05-18T14:35:11.742Z,19.30
2023-05-18T14:37:38.589Z,19.40
2023-05-18T14:40:06.289Z,19.40
2023-05-18T14:42:33.120Z,19.50
2023-05-18T14:44:59.908Z,19.60
2023-05-18T14:47:26.721Z,19.60
2023-05-18T14:49:53.467Z,19.60
2023-05-18T14:52:20.298Z,19.60
2023-05-18T14:54:47.881Z,19.60
2023-05-18T14:57:14.695Z,19.50
2023-05-18T14:59:43.516Z,19.40
2023-05-18T15:02:10.496Z,19.20
2023-05-18T15:04:37.409Z,19.00
2023-05-18T15:07:05.674Z,18.70
2023-05-18T15:09:32.508Z,18.50
2023-05-18T15:11:59.416Z,18.50
2023-05-18T15:14:26.188Z,18.40
2023-05-18T15:16:53.046Z,18.30
2023-05-18T15:19:19.953Z,18.10
2023-05-18T15:21:46.942Z,18.00
2023-05-18T15:24:13.732Z,17.80
2023-05-18T15:26:40.819Z,17.60
2023-05-18T15:29:07.879Z,17.50
2023-05-18T15:31:36.857Z,17.40
2023-05-18T15:34:03.697Z,17.30
2023-05-18T15:36:32.247Z,17.30
2023-05-18T15:38:59.055Z,17.20
2023-05-18T15:41:28.323Z,17.20
2023-05-18T15:43:55.085Z,17.20
2023-05-18T15:46:22.083Z,17.30
2023-05-18T15:48:48.894Z,17.40
2023-05-18T15:51:18.081Z,17.50
2023-05-18T15:53:45.163Z,17.80
2023-05-18T15:56:11.921Z,18.00
2023-05-18T15:58:38.683Z,18.10
2023-05-18T16:01:06.232Z,18.30
2023-05-18T16:03:33.124Z,18.40
2023-05-18T16:06:00.007Z,18.50
2023-05-18T16:08:26.790Z,18.60
2023-05-18T16:10:53.616Z,18.60
2023-05-18T16:13:22.726Z,18.70
2023-05-18T16:15:49.511Z,18.80
2023-05-18T16:18:16.240Z,18.80
2023-05-18T16:20:43.010Z,18.90
2023-05-18T16:23:09.818Z,19.00
2023-05-18T16:25:36.624Z,19.10
2023-05-18T16:28:03.547Z,19.20
2023-05-18T16:30:30.484Z,19.30
2023-05-18T16:32:57.520Z,19.40
2023-05-18T16:35:24.574Z,19.50
2023-05-18T16:37:51.290Z,19.50
2023-05-18T16:40:18.113Z,19.50
2023-05-18T16:42:47.440Z,19.60
2023-05-18T16:45:14.804Z,19.60
2023-05-18T16:47:41.912Z,19.60
2023-05-18T16:50:09.205Z,19.70
2023-05-18T16:52:35.951Z,19.70
2023-05-18T16:55:02.725Z,19.70
2023-05-18T16:57:30.151Z,19.70
2023-05-18T16:59:56.961Z,19.70
2023-05-18T17:02:24.427Z,19.80
2023-05-18T17:04:51.515Z,19.80
2023-05-18T17:07:18.511Z,19.90
2023-05-18T17:09:45.342Z,19.90
2023-05-18T17:12:12.583Z,20.00
2023-05-18T17:14:39.478Z,20.10
2023-05-18T17:17:07.047Z,20.10
2023-05-18T17:19:35.176Z,20.20
2023-05-18T17:22:03.043Z,20.20
2023-05-18T17:24:30.036Z,20.20
2023-05-18T17:26:56.865Z,20.20
2023-05-18T17:29:23.823Z,20.20
2023-05-18T17:31:50.686Z,20.10
2023-05-18T17:34:17.563Z,20.10
2023-05-18T17:36:45.511Z,20.00
2023-05-18T17:39:12.712Z,19.80
2023-05-18T17:41:39.731Z,19.80
2023-05-18T17:44:06.906Z,19.80
2023-05-18T17:46:33.941Z,19.80
2023-05-18T17:49:03.718Z,19.70
2023-05-18T17:51:31.516Z,19.70
2023-05-18T17:53:58.279Z,19.70
2023-05-18T17:56:27.463Z,19.80
2023-05-18T17:58:54.506Z,19.90
2023-05-18T18:01:21.462Z,19.90
2023-05-18T18:03:48.878Z,19.80
2023-05-18T18:06:17.737Z,19.80
2023-05-18T18:08:45.109Z,19.70
2023-05-18T18:11:11.999Z,19.70
2023-05-18T18:13:38.833Z,19.60
2023-05-18T18:16:06.146Z,19.60
2023-05-18T18:18:36.024Z,19.60
2023-05-18T18:21:03.946Z,19.60
2023-05-18T18:23:30.739Z,19.60
2023-05-18T18:25:57.603Z,19.60
2023-05-18T18:28:24.448Z,19.50
2023-05-18T18:30:51.290Z,19.50
2023-05-18T18:33:19.793Z,19.50
2023-05-18T18:35:47.302Z,19.50
2023-05-18T18:38:14.790Z,19.60
2023-05-18T18:40:41.637Z,19.60
2023-05-18T18:43:08.388Z,19.70
2023-05-18T18:45:35.216Z,19.70
2023-05-18T18:48:02.119Z,19.60
2023-05-18T18:50:29.324Z,19.30
2023-05-18T18:52:56.506Z,19.00
2023-05-18T18:55:24.350Z,18.60
2023-05-18T18:57:52.958Z,18.20
2023-05-18T19:00:21.277Z,17.90
2023-05-18T19:02:48.159Z,17.60
2023-05-18T19:05:21.459Z,17.40
2023-05-18T19:07:49.326Z,17.30
2023-05-18T19:10:16.728Z,17.00
2023-05-18T19:12:43.772Z,16.90
2023-05-18T19:15:13.307Z,16.80
2023-05-18T19:17:45.965Z,16.60
2023-05-18T19:20:13.178Z,16.50
2023-05-18T19:22:40.377Z,16.40
2023-05-18T19:25:07.357Z,16.30
2023-05-18T19:27:34.158Z,16.10
2023-05-18T19:30:02.841Z,16.10
2023-05-18T19:32:29.910Z,16.00
2023-05-18T19:34:56.903Z,15.90
2023-05-18T19:37:23.710Z,15.80
2023-05-18T19:39:50.523Z,15.80
2023-05-18T19:42:17.242Z,15.70
2023-05-18T19:44:44.124Z,15.60
2023-05-18T19:47:11.321Z,15.50
2023-05-18T19:49:38.152Z,15.40
2023-05-18T19:52:08.346Z,15.40
2023-05-18T19:54:38.563Z,15.40
2023-05-18T19:57:05.686Z,15.30
2023-05-18T19:59:32.450Z,15.20
2023-05-18T20:01:59.563Z,15.20
2023-05-18T20:04:28.281Z,15.10
2023-05-18T20:06:59.216Z,15.00
2023-05-18T20:09:26.487Z,15.00
2023-05-18T20:11:54.375Z,14.90
2023-05-18T20:14:21.317Z,14.90
2023-05-18T20:16:48.614Z,14.80
2023-05-18T20:19:17.871Z,14.80
2023-05-18T20:21:48.538Z,14.70
2023-05-18T20:24:15.906Z,14.70
2023-05-18T20:26:42.877Z,14.60
2023-05-18T20:29:09.652Z,14.60
2023-05-18T20:31:36.560Z,14.50
2023-05-18T20:34:03.891Z,14.50
2023-05-18T20:36:30.705Z,14.40
2023-05-18T20:38:57.710Z,14.40
2023-05-18T20:41:25.943Z,14.30
2023-05-18T20:43:53.174Z,14.30
2023-05-18T20:46:23.884Z,14.30
2023-05-18T20:48:52.598Z,14.20
2023-05-18T20:51:21.154Z,14.10
2023-05-18T20:53:49.363Z,14.00
2023-05-18T20:56:16.222Z,14.00
2023-05-18T20:58:48.485Z,14.00
2023-05-18T21:01:16.338Z,13.90
2023-05-18T21:03:44.982Z,13.90
2023-05-18T21:06:13.100Z,13.90
2023-05-18T21:08:40.862Z,13.80
2023-05-18T21:11:07.684Z,13.80
2023-05-18T21:13:36.715Z,13.70
2023-05-18T21:16:06.479Z,13.70
2023-05-18T21:18:34.349Z,13.60
2023-05-18T21:21:02.307Z,13.60
2023-05-18T21:23:29.301Z,13.60
2023-05-18T21:25:57.287Z,13.50
2023-05-18T21:28:26.814Z,13.50
2023-05-18T21:30:54.641Z,13.50
2023-05-18T21:33:22.190Z,13.40
2023-05-18T21:35:49.235Z,13.40
2023-05-18T21:38:16.849Z,13.40
2023-05-18T21:40:44.255Z,13.30
2023-05-18T21:43:11.345Z,13.30
2023-05-18T21:45:38.788Z,13.30
2023-05-18T21:48:06.160Z,13.20
2023-05-18T21:50:34.645Z,13.20
2023-05-18T21:53:05.568Z,13.20
2023-05-18T21:55:32.887Z,13.10
2023-05-18T21:57:59.995Z,13.10
2023-05-18T22:00:27.195Z,13.10
2023-05-18T22:02:54.412Z,13.10
2023-05-18T22:05:21.441Z,13.00
2023-05-18T22:07:48.917Z,13.10
2023-05-18T22:10:15.894Z,13.00
2023-05-18T22:12:43.585Z,12.90
2023-05-18T22:15:10.849Z,12.90
2023-05-18T22:17:38.776Z,12.90
2023-05-18T22:20:09.754Z,12.90
2023-05-18T22:22:36.707Z,12.80
2023-05-18T22:25:03.568Z,12.80
2023-05-18T22:27:30.513Z,12.70
2023-05-18T22:29:57.348Z,12.70
2023-05-18T22:32:24.306Z,12.70
2023-05-18T22:34:51.902Z,12.60
2023-05-18T22:37:18.718Z,12.60
2023-05-18T22:39:45.579Z,12.60
2023-05-18T22:42:12.424Z,12.50
2023-05-18T22:44:39.208Z,12.50
2023-05-18T22:47:06.312Z,12.50
2023-05-18T22:49:35.791Z,12.50
2023-05-18T22:52:04.437Z,12.50
2023-05-18T22:54:31.561Z,12.40
2023-05-18T22:56:59.495Z,12.40
2023-05-18T22:59:26.784Z,12.40
2023-05-18T23:01:54.661Z,12.40
2023-05-18T23:04:21.608Z,12.40
2023-05-18T23:06:49.295Z,12.30
2023-05-18T23:09:17.058Z,12.30
2023-05-18T23:11:48.291Z,12.30
2023-05-18T23:14:15.329Z,12.30
2023-05-18T23:16:42.649Z,12.30
2023-05-18T23:19:12.207Z,12.20
2023-05-18T23:21:40.340Z,12.20
2023-05-18T23:24:11.755Z,12.20
2023-05-18T23:26:42.297Z,12.20
2023-05-18T23:29:09.813Z,12.20
2023-05-18T23:31:37.002Z,12.10
2023-05-18T23:34:04.670Z,12.10
2023-05-18T23:36:35.496Z,12.10
2023-05-18T23:39:02.674Z,12.00
2023-05-18T23:41:31.541Z,12.00
2023-05-18T23:43:58.653Z,12.00
2023-05-18T23:46:26.211Z,12.00
2023-05-18T23:48:53.467Z,12.00
2023-05-18T23:51:21.271Z,12.00
2023-05-18T23:53:49.979Z,11.90
2023-05-18T23:56:17.353Z,11.90
2023-05-18T23:58:46.178Z,11.90
